Jin Wen Feng — VRKZ4 — position and weather

sailwx.info

Track history (hours):
 
Tides and Currents Weather Stations Pressure Air Temp Water Temp Dewpoint Dewpoint Depression Visibility Wind Speed Wind Dir Waves Ship Positions

Jin Wen Feng

Last reported at 2018-May-29 14:30 UTC. Time now 2018-Jun-18 00:23 UTC.
Position N 36°01' W 005°04'.
Warning: this ship's position is 19 days out of date.

Length 235 m; draft 13.7 m.

Type: Cargo ship. MMSI: 477552500.

Date/timePositionNaut miles runAvg speedWind from/ knotsBaromVisibWave heightAir tempDewpointWater temp
2018-May-29 14:30N 36°01' W 005°04'715.2
2018-May-29 14:00N 36°00' W 005°13'815.0
2018-May-29 13:30N 35°59' W 005°23'714.0
2018-May-29 13:00N 35°56' W 005°31'812.3
2018-May-29 12:20N 35°54' W 005°41'710.9
2018-May-29 11:43N 35°54' W 005°49'311.8
2018-May-29 11:30N 35°53' W 005°52'22910.7
2018-May-28 14:05N 37°59' W 009°52'2012.4
2018-May-28 12:29N 38°18' W 009°59'612.6
2018-May-28 12:00N 38°24' W 010°01'612.7
2018-May-28 11:30N 38°30' W 010°03'612.7
2018-May-28 11:00N 38°36' W 010°04'612.5
2018-May-28 10:30N 38°42' W 010°05'612.7
2018-May-28 10:00N 38°49' W 010°06'612.4
2018-May-28 09:30N 38°55' W 010°06'612.4
2018-May-28 09:00N 39°01' W 010°07'612.8
2018-May-28 08:30N 39°07' W 010°07'712.8
2018-May-28 07:59N 39°14' W 010°07'612.6
2018-May-28 07:29N 39°20' W 010°07'  
2018-May-25 22:21N 51°07' W 010°57'412.1
2018-May-25 21:59N 51°12' W 010°57'3212.0
2018-May-25 19:20N 51°44' W 010°60'1012.4
2018-May-25 18:34N 51°53' W 010°60'112.1
2018-May-25 18:30N 51°54' W 010°60'1012.3
2018-May-25 17:41N 52°04' W 010°60'212.4
2018-May-25 17:30N 52°06' W 010°60'712.4
2018-May-25 16:58N 52°13' W 010°59'5711.9
2018-May-25 12:08N 53°10' W 010°54'211.8
2018-May-25 12:00N 53°12' W 010°54'711.9
2018-May-25 11:27N 53°18' W 010°53'711.8
2018-May-25 10:52N 53°25' W 010°53'512.0
2018-May-25 10:28N 53°30' W 010°52'612.2
2018-May-25 09:57N 53°36' W 010°52'612.1
2018-May-25 09:27N 53°42' W 010°51'612.4
2018-May-25 09:00N 53°48' W 010°51'612.2
2018-May-25 08:30N 53°54' W 010°50'612.4
2018-May-25 07:59N 54°00' W 010°49'612.4
2018-May-25 07:30N 54°06' W 010°47'612.1
2018-May-25 07:00N 54°12' W 010°44'1411.9
2018-May-25 05:51N 54°25' W 010°39'412.0
2018-May-25 05:30N 54°30' W 010°38'611.9
2018-May-25 04:59N 54°35' W 010°35'611.7
2018-May-25 04:29N 54°41' W 010°33'8311.6
2018-May-24 21:18N 55°59' W 009°43'511.5
2018-May-24 20:50N 56°05' W 009°39'611.2
2018-May-24 20:17N 56°10' W 009°35'411.1
2018-May-24 19:53N 56°14' W 009°32'610.8
2018-May-24 19:21N 56°20' W 009°29'410.7
2018-May-24 18:58N 56°24' W 009°26'510.9
2018-May-24 18:29N 56°29' W 009°23'811.0
2018-May-24 17:46N 56°36' W 009°17'413 9.7
2018-May-22 23:01N 58°34' E 003°00'011.5
2018-May-22 23:00N 58°34' E 003°01'611.5
2018-May-22 22:29N 58°31' E 003°11'911.6
2018-May-22 21:40N 58°27' E 003°27'211.6
2018-May-22 21:30N 58°26' E 003°30'611.6
2018-May-22 20:57N 58°23' E 003°41'511.6
2018-May-22 20:30N 58°21' E 003°50'611.5
2018-May-22 20:00N 58°18' E 003°59'611.5
2018-May-22 19:29N 58°15' E 004°09'511.4
2018-May-22 19:00N 58°13' E 004°18'611.3
2018-May-22 18:29N 58°10' E 004°28'611.5
2018-May-22 18:00N 58°07' E 004°38'611.3
2018-May-22 17:30N 58°05' E 004°47'611.0
2018-May-22 17:00N 58°02' E 004°57'611.3
2018-May-22 16:30N 57°60' E 005°06'611.3
2018-May-22 16:00N 57°57' E 005°16'611.6
2018-May-22 15:30N 57°55' E 005°25'611.9
2018-May-22 15:00N 57°52' E 005°35'611.8
2018-May-22 14:30N 57°49' E 005°45'611.7
2018-May-22 14:00N 57°46' E 005°55'611.9
2018-May-22 13:30N 57°44' E 006°05'611.8
2018-May-22 12:59N 57°41' E 006°15'611.5
2018-May-22 12:28N 57°38' E 006°25'511.1
2018-May-22 12:00N 57°36' E 006°34'611.8
2018-May-22 11:29N 57°36' E 006°45'611.9
2018-May-22 11:00N 57°37' E 006°56'611.7
2018-May-22 10:30N 57°37' E 007°07'611.8
2018-May-22 10:00N 57°37' E 007°18'612.3
2018-May-22 09:30N 57°37' E 007°29'612.4
2018-May-22 08:59N 57°36' E 007°41'612.3
2018-May-22 08:30N 57°36' E 007°53'612.2
2018-May-22 08:00N 57°37' E 008°04'1312.1
2018-May-22 06:58N 57°39' E 008°27'911.7
2018-May-22 06:14N 57°41' E 008°43'311.6
2018-May-22 05:57N 57°41' E 008°49'1811.8
2018-May-22 04:23N 57°45' E 009°23'411.7
2018-May-22 04:00N 57°45' E 009°31'611.8
2018-May-22 03:30N 57°46' E 009°42'612.0
2018-May-22 03:00N 57°47' E 009°53'612.1
2018-May-22 02:30N 57°48' E 010°04'612.2
2018-May-22 02:00N 57°48' E 010°16'612.1
2018-May-22 01:30N 57°49' E 010°27'612.0
2018-May-22 01:00N 57°49' E 010°38'510.8
2018-May-22 00:30N 57°47' E 010°48'611.3
2018-May-22 00:00N 57°43' E 010°56'611.4
2018-May-21 23:30N 57°39' E 011°04'611.3
2018-May-21 23:00N 57°35' E 011°11'611.4
2018-May-21 22:30N 57°32' E 011°19'511.0
2018-May-21 22:00N 57°28' E 011°26'611.5
2018-May-21 21:30N 57°22' E 011°30'611.2
2018-May-21 21:00N 57°17' E 011°34'611.3
2018-May-21 20:30N 57°12' E 011°37'611.4
2018-May-21 20:00N 57°06' E 011°41'611.2
2018-May-21 19:30N 57°01' E 011°45'611.3
2018-May-21 19:00N 56°56' E 011°48'611.4
2018-May-21 18:29N 56°50' E 011°52'510.8
2018-May-21 18:00N 56°45' E 011°54'511.2
2018-May-21 17:30N 56°40' E 011°49'611.1
2018-May-21 16:56N 56°35' E 011°43'811.4
2018-May-21 16:13N 56°28' E 011°36'311.4
2018-May-21 15:59N 56°25' E 011°34'1011.3
2018-May-21 15:07N 56°17' E 011°24'211.5
2018-May-21 14:55N 56°15' E 011°22'1311.0
2018-May-21 13:42N 56°04' E 011°08'12 9.3
2018-May-21 12:25N 55°55' E 010°56'6 9.1
2018-May-21 11:43N 55°49' E 010°49'311.5
2018-May-21 11:30N 55°47' E 010°49'611.8
2018-May-21 11:00N 55°41' E 010°48'1511.5
2018-May-21 09:44N 55°27' E 010°56'311.5
2018-May-21 09:28N 55°25' E 010°59'511.5
2018-May-21 09:00N 55°20' E 011°02'611.6
2018-May-21 08:29N 55°14' E 011°06'5 9.7
2018-May-21 08:00N 55°10' E 011°02'611.2
2018-May-21 07:30N 55°05' E 010°59'611.2
2018-May-21 07:00N 54°59' E 010°58'611.4
2018-May-21 06:30N 54°55' E 010°52'611.8
2018-May-21 06:00N 54°49' E 010°50'510.2
2018-May-21 05:30N 54°44' E 010°47'5 9.2
2018-May-21 05:00N 54°40' E 010°49'612.1
2018-May-21 04:30N 54°37' E 010°58'611.8
2018-May-21 04:00N 54°36' E 011°08'612.2
2018-May-21 03:30N 54°34' E 011°18'612.3
2018-May-21 03:00N 54°32' E 011°28'612.2
2018-May-21 02:30N 54°29' E 011°37'612.0
2018-May-21 02:00N 54°27' E 011°47'612.2
2018-May-21 01:30N 54°26' E 011°57'612.2
2018-May-21 01:00N 54°26' E 012°08'510.3
2018-May-21 00:30N 54°31' E 012°13'612.0
2018-May-21 00:00N 54°36' E 012°17'612.2
2018-May-20 23:30N 54°40' E 012°25'612.1
2018-May-20 23:00N 54°43' E 012°34'611.1
2018-May-20 22:30N 54°46' E 012°42'611.5
2018-May-20 22:00N 54°48' E 012°51'611.9
2018-May-20 21:30N 54°51' E 013°01'612.1
2018-May-20 21:00N 54°53' E 013°11'612.2
2018-May-20 20:30N 54°55' E 013°21'612.2
2018-May-20 20:00N 54°57' E 013°30'612.0
2018-May-20 19:30N 54°59' E 013°40'711.9
2018-May-20 18:54N 55°02' E 013°52'512.1
2018-May-20 18:30N 55°03' E 013°60'611.9
2018-May-20 18:00N 55°07' E 014°08'612.2
2018-May-20 17:30N 55°11' E 014°15'612.1
2018-May-20 17:00N 55°16' E 014°22'612.1
2018-May-20 16:30N 55°21' E 014°29'612.1
2018-May-20 16:00N 55°25' E 014°35'612.0
2018-May-20 15:30N 55°28' E 014°45'612.0
2018-May-20 15:00N 55°31' E 014°54'611.9
2018-May-20 14:30N 55°34' E 015°03'611.9
2018-May-20 14:00N 55°37' E 015°13'611.7
2018-May-20 13:30N 55°39' E 015°22'611.8
2018-May-20 13:00N 55°40' E 015°32'612.0
2018-May-20 12:30N 55°42' E 015°42'611.9
2018-May-20 12:00N 55°43' E 015°53'612.0
2018-May-20 11:30N 55°45' E 016°03'612.2
2018-May-20 11:00N 55°46' E 016°14'612.3
2018-May-20 10:30N 55°48' E 016°24'612.2
2018-May-20 10:00N 55°49' E 016°35'612.1
2018-May-20 09:30N 55°51' E 016°45'612.1
2018-May-20 09:00N 55°52' E 016°56'612.0
2018-May-20 08:30N 55°54' E 017°06'612.0
2018-May-20 08:00N 55°55' E 017°17'611.9
2018-May-20 07:30N 55°56' E 017°27'611.8
2018-May-20 07:00N 55°58' E 017°37'611.7
2018-May-20 06:30N 56°00' E 017°46'611.8
2018-May-20 05:59N 56°04' E 017°56'611.9
2018-May-20 05:30N 56°07' E 018°04'811.8
2018-May-20 04:48N 56°11' E 018°17'1812.1
2018-May-20 03:20N 56°21' E 018°44'411.9
2018-May-20 03:00N 56°24' E 018°48'  
Track history (hours):
 
Tides and Currents Weather Stations Pressure Air Temp Water Temp Dewpoint Dewpoint Depression Visibility Wind Speed Wind Dir Waves Ship Positions

Jin Wen Feng

Last reported at 2018-May-29 14:30 UTC. Time now 2018-Jun-18 00:23 UTC.
Position N 36°01' W 005°04'.
Warning: this ship's position is 19 days out of date.

Length 235 m; draft 13.7 m.

Type: Cargo ship. MMSI: 477552500.

Date/timePositionNaut miles runAvg speedWind from/ knotsBaromVisibWave heightAir tempDewpointWater temp
2018-May-29 14:30N 36°01' W 005°04'715.2
2018-May-29 14:00N 36°00' W 005°13'815.0
2018-May-29 13:30N 35°59' W 005°23'714.0
2018-May-29 13:00N 35°56' W 005°31'812.3
2018-May-29 12:20N 35°54' W 005°41'710.9
2018-May-29 11:43N 35°54' W 005°49'311.8
2018-May-29 11:30N 35°53' W 005°52'22910.7
2018-May-28 14:05N 37°59' W 009°52'2012.4
2018-May-28 12:29N 38°18' W 009°59'612.6
2018-May-28 12:00N 38°24' W 010°01'612.7
2018-May-28 11:30N 38°30' W 010°03'612.7
2018-May-28 11:00N 38°36' W 010°04'612.5
2018-May-28 10:30N 38°42' W 010°05'612.7
2018-May-28 10:00N 38°49' W 010°06'612.4
2018-May-28 09:30N 38°55' W 010°06'612.4
2018-May-28 09:00N 39°01' W 010°07'612.8
2018-May-28 08:30N 39°07' W 010°07'712.8
2018-May-28 07:59N 39°14' W 010°07'612.6
2018-May-28 07:29N 39°20' W 010°07'  
2018-May-25 22:21N 51°07' W 010°57'412.1
2018-May-25 21:59N 51°12' W 010°57'3212.0
2018-May-25 19:20N 51°44' W 010°60'1012.4
2018-May-25 18:34N 51°53' W 010°60'112.1
2018-May-25 18:30N 51°54' W 010°60'1012.3
2018-May-25 17:41N 52°04' W 010°60'212.4
2018-May-25 17:30N 52°06' W 010°60'712.4
2018-May-25 16:58N 52°13' W 010°59'5711.9
2018-May-25 12:08N 53°10' W 010°54'211.8
2018-May-25 12:00N 53°12' W 010°54'711.9
2018-May-25 11:27N 53°18' W 010°53'711.8
2018-May-25 10:52N 53°25' W 010°53'512.0
2018-May-25 10:28N 53°30' W 010°52'612.2
2018-May-25 09:57N 53°36' W 010°52'612.1
2018-May-25 09:27N 53°42' W 010°51'612.4
2018-May-25 09:00N 53°48' W 010°51'612.2
2018-May-25 08:30N 53°54' W 010°50'612.4
2018-May-25 07:59N 54°00' W 010°49'612.4
2018-May-25 07:30N 54°06' W 010°47'612.1
2018-May-25 07:00N 54°12' W 010°44'1411.9
2018-May-25 05:51N 54°25' W 010°39'412.0
2018-May-25 05:30N 54°30' W 010°38'611.9
2018-May-25 04:59N 54°35' W 010°35'611.7
2018-May-25 04:29N 54°41' W 010°33'8311.6
2018-May-24 21:18N 55°59' W 009°43'511.5
2018-May-24 20:50N 56°05' W 009°39'611.2
2018-May-24 20:17N 56°10' W 009°35'411.1
2018-May-24 19:53N 56°14' W 009°32'610.8
2018-May-24 19:21N 56°20' W 009°29'410.7
2018-May-24 18:58N 56°24' W 009°26'510.9
2018-May-24 18:29N 56°29' W 009°23'811.0
2018-May-24 17:46N 56°36' W 009°17'413 9.7
2018-May-22 23:01N 58°34' E 003°00'011.5
2018-May-22 23:00N 58°34' E 003°01'611.5
2018-May-22 22:29N 58°31' E 003°11'911.6
2018-May-22 21:40N 58°27' E 003°27'211.6
2018-May-22 21:30N 58°26' E 003°30'611.6
2018-May-22 20:57N 58°23' E 003°41'511.6
2018-May-22 20:30N 58°21' E 003°50'611.5
2018-May-22 20:00N 58°18' E 003°59'611.5
2018-May-22 19:29N 58°15' E 004°09'511.4
2018-May-22 19:00N 58°13' E 004°18'611.3
2018-May-22 18:29N 58°10' E 004°28'611.5
2018-May-22 18:00N 58°07' E 004°38'611.3
2018-May-22 17:30N 58°05' E 004°47'611.0
2018-May-22 17:00N 58°02' E 004°57'611.3
2018-May-22 16:30N 57°60' E 005°06'611.3
2018-May-22 16:00N 57°57' E 005°16'611.6
2018-May-22 15:30N 57°55' E 005°25'611.9
2018-May-22 15:00N 57°52' E 005°35'611.8
2018-May-22 14:30N 57°49' E 005°45'611.7
2018-May-22 14:00N 57°46' E 005°55'611.9
2018-May-22 13:30N 57°44' E 006°05'611.8
2018-May-22 12:59N 57°41' E 006°15'611.5
2018-May-22 12:28N 57°38' E 006°25'511.1
2018-May-22 12:00N 57°36' E 006°34'611.8
2018-May-22 11:29N 57°36' E 006°45'611.9
2018-May-22 11:00N 57°37' E 006°56'611.7
2018-May-22 10:30N 57°37' E 007°07'611.8
2018-May-22 10:00N 57°37' E 007°18'612.3
2018-May-22 09:30N 57°37' E 007°29'612.4
2018-May-22 08:59N 57°36' E 007°41'612.3
2018-May-22 08:30N 57°36' E 007°53'612.2
2018-May-22 08:00N 57°37' E 008°04'1312.1
2018-May-22 06:58N 57°39' E 008°27'911.7
2018-May-22 06:14N 57°41' E 008°43'311.6
2018-May-22 05:57N 57°41' E 008°49'1811.8
2018-May-22 04:23N 57°45' E 009°23'411.7
2018-May-22 04:00N 57°45' E 009°31'611.8
2018-May-22 03:30N 57°46' E 009°42'612.0
2018-May-22 03:00N 57°47' E 009°53'612.1
2018-May-22 02:30N 57°48' E 010°04'612.2
2018-May-22 02:00N 57°48' E 010°16'612.1
2018-May-22 01:30N 57°49' E 010°27'612.0
2018-May-22 01:00N 57°49' E 010°38'510.8
2018-May-22 00:30N 57°47' E 010°48'611.3
2018-May-22 00:00N 57°43' E 010°56'611.4
2018-May-21 23:30N 57°39' E 011°04'611.3
2018-May-21 23:00N 57°35' E 011°11'611.4
2018-May-21 22:30N 57°32' E 011°19'511.0
2018-May-21 22:00N 57°28' E 011°26'611.5
2018-May-21 21:30N 57°22' E 011°30'611.2
2018-May-21 21:00N 57°17' E 011°34'611.3
2018-May-21 20:30N 57°12' E 011°37'611.4
2018-May-21 20:00N 57°06' E 011°41'611.2
2018-May-21 19:30N 57°01' E 011°45'611.3
2018-May-21 19:00N 56°56' E 011°48'611.4
2018-May-21 18:29N 56°50' E 011°52'510.8
2018-May-21 18:00N 56°45' E 011°54'511.2
2018-May-21 17:30N 56°40' E 011°49'611.1
2018-May-21 16:56N 56°35' E 011°43'811.4
2018-May-21 16:13N 56°28' E 011°36'311.4
2018-May-21 15:59N 56°25' E 011°34'1011.3
2018-May-21 15:07N 56°17' E 011°24'211.5
2018-May-21 14:55N 56°15' E 011°22'1311.0
2018-May-21 13:42N 56°04' E 011°08'12 9.3
2018-May-21 12:25N 55°55' E 010°56'6 9.1
2018-May-21 11:43N 55°49' E 010°49'311.5
2018-May-21 11:30N 55°47' E 010°49'611.8
2018-May-21 11:00N 55°41' E 010°48'1511.5
2018-May-21 09:44N 55°27' E 010°56'311.5
2018-May-21 09:28N 55°25' E 010°59'511.5
2018-May-21 09:00N 55°20' E 011°02'611.6
2018-May-21 08:29N 55°14' E 011°06'5 9.7
2018-May-21 08:00N 55°10' E 011°02'611.2
2018-May-21 07:30N 55°05' E 010°59'611.2
2018-May-21 07:00N 54°59' E 010°58'611.4
2018-May-21 06:30N 54°55' E 010°52'611.8
2018-May-21 06:00N 54°49' E 010°50'510.2
2018-May-21 05:30N 54°44' E 010°47'5 9.2
2018-May-21 05:00N 54°40' E 010°49'612.1
2018-May-21 04:30N 54°37' E 010°58'611.8
2018-May-21 04:00N 54°36' E 011°08'612.2
2018-May-21 03:30N 54°34' E 011°18'612.3
2018-May-21 03:00N 54°32' E 011°28'612.2
2018-May-21 02:30N 54°29' E 011°37'612.0
2018-May-21 02:00N 54°27' E 011°47'612.2
2018-May-21 01:30N 54°26' E 011°57'612.2
2018-May-21 01:00N 54°26' E 012°08'510.3
2018-May-21 00:30N 54°31' E 012°13'612.0
2018-May-21 00:00N 54°36' E 012°17'612.2
2018-May-20 23:30N 54°40' E 012°25'612.1
2018-May-20 23:00N 54°43' E 012°34'611.1
2018-May-20 22:30N 54°46' E 012°42'611.5
2018-May-20 22:00N 54°48' E 012°51'611.9
2018-May-20 21:30N 54°51' E 013°01'612.1
2018-May-20 21:00N 54°53' E 013°11'612.2
2018-May-20 20:30N 54°55' E 013°21'612.2
2018-May-20 20:00N 54°57' E 013°30'612.0
2018-May-20 19:30N 54°59' E 013°40'711.9
2018-May-20 18:54N 55°02' E 013°52'512.1
2018-May-20 18:30N 55°03' E 013°60'611.9
2018-May-20 18:00N 55°07' E 014°08'612.2
2018-May-20 17:30N 55°11' E 014°15'612.1
2018-May-20 17:00N 55°16' E 014°22'612.1
2018-May-20 16:30N 55°21' E 014°29'612.1
2018-May-20 16:00N 55°25' E 014°35'612.0
2018-May-20 15:30N 55°28' E 014°45'612.0
2018-May-20 15:00N 55°31' E 014°54'611.9
2018-May-20 14:30N 55°34' E 015°03'611.9
2018-May-20 14:00N 55°37' E 015°13'611.7
2018-May-20 13:30N 55°39' E 015°22'611.8
2018-May-20 13:00N 55°40' E 015°32'612.0
2018-May-20 12:30N 55°42' E 015°42'611.9
2018-May-20 12:00N 55°43' E 015°53'612.0
2018-May-20 11:30N 55°45' E 016°03'612.2
2018-May-20 11:00N 55°46' E 016°14'612.3
2018-May-20 10:30N 55°48' E 016°24'612.2
2018-May-20 10:00N 55°49' E 016°35'612.1
2018-May-20 09:30N 55°51' E 016°45'612.1
2018-May-20 09:00N 55°52' E 016°56'612.0
2018-May-20 08:30N 55°54' E 017°06'612.0
2018-May-20 08:00N 55°55' E 017°17'611.9
2018-May-20 07:30N 55°56' E 017°27'611.8
2018-May-20 07:00N 55°58' E 017°37'611.7
2018-May-20 06:30N 56°00' E 017°46'611.8
2018-May-20 05:59N 56°04' E 017°56'611.9
2018-May-20 05:30N 56°07' E 018°04'811.8
2018-May-20 04:48N 56°11' E 018°17'1812.1
2018-May-20 03:20N 56°21' E 018°44'411.9
2018-May-20 03:00N 56°24' E 018°48'  

Dump ship's entire track history